Time;durP1;ratioP1;P1;durP2;ratioP2;P2;SDS_P1;SDS_P2;PMS_P1;PMS_P2;Temp;Humidity;BMP_temperature;BMP_pressure;BME280_temperature;BME280_humidity;BME280_pressure;Samples;Min_cycle;Max_cycle;Signal;HPM_P1;HPM_P2
2023/06/16 00:00:59;;;;;;;7.50;3.95;;;17.30;99.90;;;;;;5061715;28;20036;-61
2023/06/16 00:03:25;;;;;;;7.72;4.13;;;17.30;99.90;;;;;;5065855;28;21217;-61
2023/06/16 00:05:51;;;;;;;8.90;4.28;;;17.20;99.90;;;;;;5062228;28;20033;-62
2023/06/16 00:08:17;;;;;;;7.55;4.30;;;17.00;99.90;;;;;;5058057;28;20045;-61
2023/06/16 00:10:42;;;;;;;8.55;4.35;;;17.10;99.90;;;;;;5068546;28;20063;-62
2023/06/16 00:13:09;;;;;;;6.45;4.13;;;17.00;99.90;;;;;;5064602;28;20048;-62
2023/06/16 00:15:35;;;;;;;8.02;4.47;;;17.00;99.90;;;;;;5068824;28;20035;-61
2023/06/16 00:18:01;;;;;;;8.00;4.28;;;16.80;99.90;;;;;;5062008;28;20451;-62
2023/06/16 00:20:27;;;;;;;7.13;4.07;;;16.90;99.90;;;;;;5063630;28;20385;-61
2023/06/16 00:22:54;;;;;;;5.68;4.03;;;16.80;1.00;;;;;;5065799;28;20562;-61
2023/06/16 00:25:20;;;;;;;6.38;4.22;;;16.80;99.90;;;;;;5065496;28;20071;-61
2023/06/16 00:27:46;;;;;;;6.90;4.03;;;16.80;1.00;;;;;;5068567;28;20347;-61
2023/06/16 00:30:12;;;;;;;9.18;4.43;;;16.70;1.00;;;;;;5058550;28;20412;-62
2023/06/16 00:32:37;;;;;;;7.20;3.83;;;16.70;99.90;;;;;;5065968;28;20032;-62
2023/06/16 00:35:03;;;;;;;7.22;3.92;;;16.70;99.90;;;;;;5066346;28;20486;-61
2023/06/16 00:37:29;;;;;;;6.10;4.00;;;16.80;99.90;;;;;;5065171;28;20043;-61
2023/06/16 00:39:55;;;;;;;7.78;4.50;;;16.90;99.90;;;;;;5062048;28;20033;-62
2023/06/16 00:42:20;;;;;;;6.32;4.15;;;16.80;99.90;;;;;;5066909;28;20021;-61
2023/06/16 00:44:46;;;;;;;7.22;4.68;;;16.60;99.90;;;;;;5063260;28;20033;-61
2023/06/16 00:47:11;;;;;;;6.82;4.40;;;16.60;99.90;;;;;;5067014;28;20040;-61
2023/06/16 00:49:38;;;;;;;7.18;4.30;;;16.50;99.90;;;;;;5071145;28;20040;-62
2023/06/16 00:52:06;;;;;;;6.75;3.95;;;16.50;99.90;;;;;;5066447;28;20024;-63
2023/06/16 00:54:32;;;;;;;8.00;4.32;;;16.50;99.90;;;;;;5065763;28;20058;-61
2023/06/16 00:56:58;;;;;;;7.00;4.20;;;16.50;99.90;;;;;;5067992;28;20029;-62
2023/06/16 00:59:26;;;;;;;5.20;4.28;;;16.30;99.90;;;;;;5068707;28;20055;-61
2023/06/16 01:01:54;;;;;;;6.25;4.50;;;16.30;99.90;;;;;;5063435;28;20605;-61
2023/06/16 01:04:21;;;;;;;7.47;4.13;;;16.30;99.90;;;;;;5065949;28;20548;-62
2023/06/16 01:07:20;;;;;;;8.40;4.55;;;16.20;99.90;;;;;;5067806;28;20060;-61
2023/06/16 01:09:57;;;;;;;7.13;4.63;;;16.30;99.90;;;;;;5051803;28;20024;-61
2023/06/16 01:12:32;;;;;;;8.73;4.38;;;16.20;66.50;;;;;;5062989;28;20028;-61
2023/06/16 01:15:04;;;;;;;8.55;4.55;;;16.10;1.00;;;;;;5069193;28;20036;-61
2023/06/16 01:17:33;;;;;;;7.88;4.53;;;16.20;1.00;;;;;;5066814;28;20387;-62
2023/06/16 01:20:09;;;;;;;9.18;4.35;;;16.20;99.90;;;;;;5064035;28;20672;-61
2023/06/16 01:23:05;;;;;;;9.48;4.50;;;16.40;99.90;;;;;;5070551;28;20042;-61
2023/06/16 01:25:33;;;;;;;8.20;4.38;;;16.60;99.90;;;;;;5060382;28;20478;-61
2023/06/16 01:28:03;;;;;;;7.15;4.75;;;16.60;99.90;;;;;;5062746;28;20027;-61
2023/06/16 01:30:32;;;;;;;5.80;4.30;;;16.50;99.90;;;;;;5067836;28;20550;-62
2023/06/16 01:32:59;;;;;;;6.35;4.32;;;16.30;99.90;;;;;;5063121;28;20302;-61
2023/06/16 01:35:26;;;;;;;7.72;4.38;;;16.10;99.90;;;;;;5066784;28;20032;-62
2023/06/16 01:37:53;;;;;;;6.60;4.13;;;16.00;99.90;;;;;;5063788;28;20034;-61
2023/06/16 01:40:19;;;;;;;7.80;3.97;;;16.00;99.90;;;;;;5066557;28;20033;-61
2023/06/16 01:42:46;;;;;;;6.05;4.25;;;16.00;99.90;;;;;;5064238;28;20111;-61
2023/06/16 01:45:15;;;;;;;7.75;4.30;;;16.00;99.90;;;;;;5059345;28;20513;-62
2023/06/16 01:47:42;;;;;;;7.10;4.22;;;16.00;99.90;;;;;;5064897;28;20032;-61
2023/06/16 01:50:08;;;;;;;8.05;4.72;;;16.00;99.90;;;;;;5073047;28;20059;-61
2023/06/16 01:52:34;;;;;;;6.22;4.32;;;15.90;99.90;;;;;;5065136;28;20430;-61
2023/06/16 01:54:59;;;;;;;10.23;4.80;;;15.80;99.90;;;;;;5065332;28;20044;-61
2023/06/16 01:57:27;;;;;;;8.60;4.68;;;15.80;99.90;;;;;;5069035;28;20029;-62
2023/06/16 02:00:01;;;;;;;8.32;4.43;;;15.70;99.90;;;;;;5068848;28;20494;-62
2023/06/16 02:02:29;;;;;;;7.97;4.50;;;15.70;99.90;;;;;;5062916;28;20696;-61
2023/06/16 02:04:55;;;;;;;6.75;4.38;;;15.70;99.90;;;;;;5072584;28;20040;-61
2023/06/16 02:07:30;;;;;;;7.65;4.57;;;15.70;99.90;;;;;;5060791;28;20029;-61
2023/06/16 02:09:58;;;;;;;7.30;4.80;;;15.60;99.90;;;;;;5061711;28;20040;-62
2023/06/16 02:12:24;;;;;;;6.53;4.28;;;15.60;99.90;;;;;;5067157;28;20032;-62
2023/06/16 02:14:50;;;;;;;10.52;4.53;;;15.50;99.90;;;;;;5065785;28;20066;-61
2023/06/16 02:17:16;;;;;;;6.80;4.20;;;15.50;99.90;;;;;;5062651;28;20590;-62
2023/06/16 02:19:43;;;;;;;5.30;4.25;;;15.50;99.90;;;;;;5060455;28;20036;-61
2023/06/16 02:22:08;;;;;;;6.70;4.50;;;15.40;99.90;;;;;;5067590;28;20029;-61
2023/06/16 02:24:35;;;;;;;7.25;4.30;;;15.30;99.90;;;;;;5068144;28;20025;-61
2023/06/16 02:27:03;;;;;;;8.32;4.03;;;15.40;99.90;;;;;;5062815;28;20400;-61
2023/06/16 02:29:29;;;;;;;7.28;4.68;;;15.30;99.90;;;;;;5065467;28;20455;-62
2023/06/16 02:31:54;;;;;;;6.15;4.32;;;15.20;99.90;;;;;;5067933;28;20064;-61
2023/06/16 02:34:20;;;;;;;6.65;4.03;;;15.30;99.90;;;;;;5067541;28;20055;-61
2023/06/16 02:36:46;;;;;;;7.55;4.35;;;15.30;99.90;;;;;;5065488;28;20049;-62
2023/06/16 02:39:13;;;;;;;6.93;4.70;;;15.20;99.90;;;;;;5063481;28;20039;-62
2023/06/16 02:41:38;;;;;;;5.45;4.40;;;15.20;99.90;;;;;;5063634;28;20043;-62
2023/06/16 02:44:04;;;;;;;6.97;4.65;;;15.20;99.90;;;;;;5068406;28;20409;-61
2023/06/16 02:46:30;;;;;;;8.75;4.78;;;15.10;99.90;;;;;;5066820;28;20052;-57
2023/06/16 02:48:55;;;;;;;7.05;4.63;;;15.10;99.90;;;;;;5064855;28;20593;-57
2023/06/16 02:51:21;;;;;;;6.70;4.40;;;15.00;99.90;;;;;;5066719;28;20037;-57
2023/06/16 02:53:46;;;;;;;7.10;4.72;;;15.00;99.90;;;;;;5063345;28;20028;-57
2023/06/16 02:56:12;;;;;;;7.10;4.50;;;15.00;99.90;;;;;;5065670;28;20047;-57
2023/06/16 02:58:38;;;;;;;11.48;4.30;;;15.00;99.90;;;;;;5067852;28;20028;-57
2023/06/16 03:01:04;;;;;;;7.80;4.22;;;15.00;99.90;;;;;;5067217;28;20508;-57
2023/06/16 03:03:31;;;;;;;12.48;4.80;;;14.90;99.90;;;;;;5066375;28;20113;-57
2023/06/16 03:06:00;;;;;;;7.47;4.85;;;14.90;99.90;;;;;;5062758;28;20032;-57
2023/06/16 03:08:26;;;;;;;6.40;4.60;;;14.90;99.90;;;;;;5066907;28;20391;-57
2023/06/16 03:10:51;;;;;;;7.82;4.65;;;14.90;99.90;;;;;;5064096;28;20297;-57
2023/06/16 03:13:18;;;;;;;7.28;4.60;;;14.90;99.90;;;;;;5067393;28;20028;-56
2023/06/16 03:15:44;;;;;;;6.65;4.53;;;14.90;99.90;;;;;;5065090;28;20080;-57
2023/06/16 03:18:10;;;;;;;6.97;4.43;;;14.80;99.90;;;;;;5063614;28;20090;-56
2023/06/16 03:20:36;;;;;;;7.30;4.70;;;14.80;99.90;;;;;;5070273;28;20037;-56
2023/06/16 03:23:02;;;;;;;5.85;4.38;;;14.80;99.90;;;;;;5067623;28;20048;-58
2023/06/16 03:25:30;;;;;;;7.65;4.90;;;14.80;99.90;;;;;;5062070;28;20033;-57
2023/06/16 03:27:56;;;;;;;8.50;4.25;;;14.80;99.90;;;;;;5068384;28;20040;-57
2023/06/16 03:30:22;;;;;;;9.13;4.82;;;14.70;99.90;;;;;;5067767;28;20059;-57
2023/06/16 03:32:47;;;;;;;7.90;4.55;;;14.70;99.90;;;;;;5068752;28;20492;-57
2023/06/16 03:35:13;;;;;;;7.65;4.40;;;14.70;99.90;;;;;;5067375;28;20058;-57
2023/06/16 03:37:39;;;;;;;10.70;4.20;;;14.70;99.90;;;;;;5070441;28;20040;-57
2023/06/16 03:40:06;;;;;;;7.38;4.82;;;14.60;99.90;;;;;;5066183;28;20487;-56
2023/06/16 03:42:35;;;;;;;8.45;4.95;;;14.60;99.90;;;;;;5063434;28;20086;-57
2023/06/16 03:45:01;;;;;;;10.65;4.90;;;14.70;99.90;;;;;;5065866;28;20040;-56
2023/06/16 03:47:27;;;;;;;11.10;4.65;;;14.60;99.90;;;;;;5066090;28;20040;-56
2023/06/16 03:49:53;;;;;;;6.30;4.53;;;14.60;99.90;;;;;;5068343;28;20281;-57
2023/06/16 03:52:19;;;;;;;12.82;4.82;;;14.60;99.90;;;;;;5069161;28;20029;-56
2023/06/16 03:54:45;;;;;;;6.82;4.32;;;14.60;99.90;;;;;;5069195;28;20020;-57
2023/06/16 03:57:12;;;;;;;10.38;5.43;;;14.60;99.90;;;;;;5069179;28;20040;-56
2023/06/16 03:59:38;;;;;;;9.80;4.47;;;14.60;99.90;;;;;;5065077;28;20043;-57
2023/06/16 04:02:07;;;;;;;10.43;4.95;;;14.60;99.90;;;;;;5062165;28;20472;-57
2023/06/16 04:04:36;;;;;;;8.82;4.90;;;14.60;99.90;;;;;;5068844;28;20029;-57
2023/06/16 04:07:03;;;;;;;8.50;4.80;;;14.70;99.90;;;;;;5068294;28;20028;-57
2023/06/16 04:09:32;;;;;;;8.93;4.70;;;14.70;99.90;;;;;;5065858;28;20399;-57
2023/06/16 04:11:58;;;;;;;10.27;5.05;;;14.70;99.90;;;;;;5064852;28;20405;-58
2023/06/16 04:14:23;;;;;;;8.80;4.75;;;14.70;99.90;;;;;;5060824;28;20484;-58
2023/06/16 04:16:49;;;;;;;7.78;5.03;;;14.80;99.90;;;;;;5062630;28;20438;-58
2023/06/16 04:19:17;;;;;;;9.98;4.90;;;14.80;99.90;;;;;;5062778;28;20642;-58
2023/06/16 04:21:43;;;;;;;10.13;4.75;;;14.80;99.90;;;;;;5061280;28;20048;-58
2023/06/16 04:24:10;;;;;;;6.60;5.40;;;14.80;99.90;;;;;;5060424;28;20039;-58
2023/06/16 04:26:35;;;;;;;9.85;5.22;;;14.80;99.90;;;;;;5062873;28;20043;-58
2023/06/16 04:29:03;;;;;;;6.95;4.47;;;14.80;99.90;;;;;;5061933;28;20044;-58
2023/06/16 04:31:31;;;;;;;5.85;4.78;;;14.90;99.90;;;;;;5059489;28;20043;-58
2023/06/16 04:33:58;;;;;;;7.68;5.00;;;14.90;99.90;;;;;;5063089;28;20453;-58
2023/06/16 04:36:25;;;;;;;8.32;4.78;;;14.90;99.90;;;;;;5065135;28;20044;-57
2023/06/16 04:38:52;;;;;;;9.73;4.95;;;15.00;99.90;;;;;;5069080;28;20107;-58
2023/06/16 04:41:17;;;;;;;10.63;5.15;;;15.00;99.90;;;;;;5067541;28;20063;-58
2023/06/16 04:43:43;;;;;;;8.55;4.82;;;15.00;99.90;;;;;;5063097;28;20484;-58
2023/06/16 04:46:08;;;;;;;6.78;4.65;;;15.10;99.90;;;;;;5064518;28;20052;-58
2023/06/16 04:48:34;;;;;;;7.78;5.18;;;15.40;99.90;;;;;;5064738;28;20757;-57
2023/06/16 04:50:59;;;;;;;8.13;5.20;;;15.60;99.90;;;;;;5061237;28;20487;-58
2023/06/16 04:53:26;;;;;;;6.95;4.78;;;15.50;99.90;;;;;;5070281;28;20073;-58
2023/06/16 04:55:51;;;;;;;7.47;4.82;;;15.70;99.90;;;;;;5071778;28;20036;-57
2023/06/16 04:58:17;;;;;;;6.13;4.80;;;15.80;99.90;;;;;;5066258;28;20043;-58
2023/06/16 05:00:43;;;;;;;9.57;5.28;;;15.90;99.90;;;;;;5063648;28;20150;-58
2023/06/16 05:03:09;;;;;;;7.18;4.93;;;16.00;99.90;;;;;;5063716;28;20036;-58
2023/06/16 05:05:34;;;;;;;8.10;5.13;;;16.00;99.90;;;;;;5071255;28;20391;-58
2023/06/16 05:08:00;;;;;;;9.95;5.90;;;16.00;99.90;;;;;;5056768;28;20051;-58
2023/06/16 05:10:25;;;;;;;7.75;5.28;;;16.20;99.90;;;;;;5065681;28;20107;-57
2023/06/16 05:12:51;;;;;;;7.25;5.30;;;16.40;99.90;;;;;;5070921;28;20039;-58
2023/06/16 05:15:17;;;;;;;9.38;5.00;;;16.60;99.90;;;;;;5067920;28;20267;-58
2023/06/16 05:17:44;;;;;;;14.73;5.53;;;16.80;99.90;;;;;;5067690;28;20487;-58
2023/06/16 05:20:10;;;;;;;10.02;5.25;;;17.00;99.90;;;;;;5061460;28;20774;-58
2023/06/16 05:22:35;;;;;;;10.80;4.97;;;17.00;99.90;;;;;;5072367;28;20037;-58
2023/06/16 05:25:01;;;;;;;10.48;4.95;;;17.00;99.90;;;;;;5059262;28;20044;-58
2023/06/16 05:27:27;;;;;;;8.35;5.07;;;17.10;99.90;;;;;;5072165;28;20119;-58
2023/06/16 05:29:54;;;;;;;7.65;4.75;;;17.30;99.90;;;;;;5073226;28;20041;-58
2023/06/16 05:32:21;;;;;;;9.40;5.38;;;17.40;99.90;;;;;;5061650;28;20025;-57
2023/06/16 05:34:50;;;;;;;8.02;5.45;;;;;;;;;;5058201;28;20040;-57
2023/06/16 05:37:17;;;;;;;14.90;5.25;;;17.80;99.90;;;;;;5059985;28;20021;-58
2023/06/16 05:39:43;;;;;;;12.15;5.47;;;17.90;99.90;;;;;;5065514;28;20033;-58
2023/06/16 05:42:11;;;;;;;12.50;5.38;;;17.90;99.90;;;;;;5061836;28;21003;-58
2023/06/16 05:44:36;;;;;;;10.60;5.38;;;18.10;99.90;;;;;;5066168;28;20044;-58
2023/06/16 05:47:03;;;;;;;16.88;5.60;;;18.10;99.90;;;;;;5066833;28;20492;-58
2023/06/16 05:49:28;;;;;;;9.23;5.25;;;18.30;99.90;;;;;;5069609;28;20384;-57
2023/06/16 05:51:56;;;;;;;12.52;5.13;;;18.40;99.90;;;;;;5067427;28;20033;-58
2023/06/16 05:54:22;;;;;;;14.75;5.63;;;18.60;99.90;;;;;;5065102;28;20396;-58
2023/06/16 05:56:48;;;;;;;16.75;6.40;;;18.70;99.90;;;;;;5066259;28;20036;-58
2023/06/16 05:59:13;;;;;;;11.48;5.68;;;18.70;99.90;;;;;;5062707;28;20056;-58
2023/06/16 06:01:39;;;;;;;15.55;6.53;;;18.80;99.90;;;;;;5069276;28;20082;-58
2023/06/16 06:04:04;;;;;;;12.85;5.30;;;18.80;99.90;;;;;;5066598;28;20396;-58
2023/06/16 06:06:30;;;;;;;10.55;5.15;;;18.90;99.90;;;;;;5064583;28;20404;-58
2023/06/16 06:08:55;;;;;;;11.90;5.05;;;19.00;99.90;;;;;;5066943;28;20551;-58
2023/06/16 06:11:21;;;;;;;15.95;5.50;;;19.10;99.90;;;;;;5069598;28;20375;-58
2023/06/16 06:13:47;;;;;;;11.63;5.05;;;19.40;99.90;;;;;;5063115;28;20115;-57
2023/06/16 06:16:13;;;;;;;13.63;5.50;;;19.50;99.90;;;;;;5062555;28;20067;-57
2023/06/16 06:18:38;;;;;;;6.57;4.68;;;19.40;99.90;;;;;;5066003;28;20408;-57
2023/06/16 06:21:04;;;;;;;12.15;5.28;;;19.50;99.90;;;;;;5068631;28;20037;-57
2023/06/16 06:23:30;;;;;;;11.38;5.15;;;19.70;99.90;;;;;;5067477;28;20555;-57
2023/06/16 06:25:56;;;;;;;12.85;5.57;;;19.80;99.90;;;;;;5072233;28;20101;-57
2023/06/16 06:28:23;;;;;;;12.88;4.97;;;19.80;99.90;;;;;;5071194;28;20044;-57
2023/06/16 06:30:48;;;;;;;12.23;5.05;;;19.80;99.90;;;;;;5066078;28;20032;-59
2023/06/16 06:33:14;;;;;;;10.23;4.47;;;20.00;99.90;;;;;;5065452;28;20060;-57
2023/06/16 06:35:40;;;;;;;10.30;4.80;;;20.00;99.90;;;;;;5068971;28;20034;-57
2023/06/16 06:38:06;;;;;;;10.27;5.05;;;20.20;99.90;;;;;;5066959;28;20041;-58
2023/06/16 06:40:32;;;;;;;9.60;4.45;;;20.40;99.90;;;;;;5065356;28;20028;-57
2023/06/16 06:42:57;;;;;;;12.55;4.90;;;20.50;99.90;;;;;;5065796;28;20040;-57
2023/06/16 06:45:23;;;;;;;11.70;4.57;;;20.60;99.90;;;;;;5070057;28;20143;-57
2023/06/16 06:47:48;;;;;;;9.48;4.72;;;20.50;99.90;;;;;;5061956;28;20128;-57
2023/06/16 06:50:14;;;;;;;12.40;4.53;;;20.50;99.90;;;;;;5065807;28;20036;-57
2023/06/16 06:52:40;;;;;;;12.93;4.68;;;20.60;99.90;;;;;;5066628;28;20128;-57
2023/06/16 06:55:06;;;;;;;11.98;4.65;;;20.60;99.90;;;;;;5067713;28;20256;-57
2023/06/16 06:57:32;;;;;;;9.75;4.47;;;20.70;99.90;;;;;;5070361;28;20029;-57
2023/06/16 06:59:57;;;;;;;9.68;4.43;;;20.80;99.90;;;;;;5068476;28;20185;-58
2023/06/16 07:02:23;;;;;;;12.55;4.72;;;21.10;99.90;;;;;;5065828;28;20036;-58
2023/06/16 07:04:49;;;;;;;9.70;4.50;;;21.20;99.90;;;;;;5070741;28;20044;-57
2023/06/16 07:07:15;;;;;;;10.48;4.30;;;21.10;99.90;;;;;;5067717;28;20021;-58
2023/06/16 07:09:40;;;;;;;13.88;4.28;;;21.20;99.90;;;;;;5067008;28;20067;-57
2023/06/16 07:12:07;;;;;;;7.20;4.10;;;21.50;96.60;;;;;;5058742;28;20399;-58
2023/06/16 07:14:34;;;;;;;13.55;4.40;;;21.40;95.00;;;;;;5058145;28;20046;-58
2023/06/16 07:17:02;;;;;;;6.80;4.00;;;21.30;96.20;;;;;;5067646;28;20044;-57
2023/06/16 07:19:28;;;;;;;8.77;4.00;;;21.50;88.90;;;;;;5064978;28;20036;-58
2023/06/16 07:21:54;;;;;;;9.25;4.05;;;21.50;82.50;;;;;;5066854;28;20361;-58
2023/06/16 07:24:21;;;;;;;9.88;4.05;;;21.40;83.20;;;;;;5064581;28;20769;-58
2023/06/16 07:26:47;;;;;;;11.98;3.60;;;21.50;77.10;;;;;;5062155;28;20461;-58
2023/06/16 07:29:12;;;;;;;7.85;3.47;;;21.40;81.70;;;;;;5070082;28;20028;-57
2023/06/16 07:31:38;;;;;;;6.93;3.72;;;21.60;81.30;;;;;;5070394;28;20028;-58
2023/06/16 07:34:03;;;;;;;8.85;3.50;;;21.90;75.50;;;;;;5066138;28;20068;-57
2023/06/16 07:36:33;;;;;;;10.48;3.90;;;22.00;74.30;;;;;;5064878;28;20066;-58
2023/06/16 07:38:58;;;;;;;8.18;3.80;;;22.20;70.90;;;;;;5064427;28;20048;-58
2023/06/16 07:41:24;;;;;;;7.45;4.10;;;22.30;69.30;;;;;;5060731;28;20032;-58
2023/06/16 07:43:49;;;;;;;6.18;3.60;;;22.40;73.10;;;;;;5064354;28;20081;-58
2023/06/16 07:46:17;;;;;;;7.10;3.63;;;22.30;66.80;;;;;;5066638;28;20025;-57
2023/06/16 07:48:43;;;;;;;6.90;3.53;;;22.40;70.30;;;;;;5067404;28;20379;-58
2023/06/16 07:51:08;;;;;;;6.45;3.35;;;22.50;65.20;;;;;;5062332;28;20116;-58
2023/06/16 07:53:34;;;;;;;5.53;2.97;;;22.30;61.90;;;;;;5062400;28;20037;-57
2023/06/16 07:56:00;;;;;;;5.82;2.80;;;22.10;58.40;;;;;;5068902;28;20032;-58
2023/06/16 07:58:26;;;;;;;7.90;3.55;;;22.20;57.00;;;;;;5063310;28;20048;-58
2023/06/16 08:00:52;;;;;;;4.65;2.97;;;22.10;57.60;;;;;;5069324;28;20404;-57
2023/06/16 08:03:19;;;;;;;6.68;3.13;;;22.10;56.00;;;;;;5067100;28;20036;-58
2023/06/16 08:05:44;;;;;;;5.75;3.22;;;22.40;59.90;;;;;;5063771;28;20035;-58
2023/06/16 08:08:10;;;;;;;7.80;3.17;;;22.70;62.50;;;;;;5059136;28;20040;-58
2023/06/16 08:10:35;;;;;;;6.80;3.65;;;22.80;61.00;;;;;;5061964;28;20044;-58
2023/06/16 08:13:01;;;;;;;6.47;3.75;;;22.90;59.60;;;;;;5065533;28;20032;-57
2023/06/16 08:15:26;;;;;;;9.00;3.45;;;22.90;59.20;;;;;;5067541;28;20055;-57
2023/06/16 08:17:52;;;;;;;9.90;3.80;;;22.60;57.30;;;;;;5067669;28;20504;-57
2023/06/16 08:20:18;;;;;;;6.63;3.90;;;22.70;57.50;;;;;;5062709;28;20377;-58
2023/06/16 08:22:44;;;;;;;12.80;4.47;;;22.70;58.80;;;;;;5069706;28;20060;-58
2023/06/16 08:25:09;;;;;;;9.77;4.13;;;22.70;56.10;;;;;;5071663;28;20125;-58
2023/06/16 08:27:35;;;;;;;8.70;4.55;;;22.60;57.80;;;;;;5068298;28;20387;-58
2023/06/16 08:30:01;;;;;;;10.13;4.30;;;23.00;58.30;;;;;;5059071;28;20131;-57
2023/06/16 08:32:27;;;;;;;9.27;3.78;;;23.30;58.70;;;;;;5061884;28;20031;-58
2023/06/16 08:34:53;;;;;;;8.88;4.10;;;23.40;58.80;;;;;;5070228;28;20130;-58
2023/06/16 08:37:19;;;;;;;11.13;3.88;;;23.40;57.40;;;;;;5065476;28;20323;-57
2023/06/16 08:39:45;;;;;;;10.02;4.00;;;23.10;57.80;;;;;;5074678;28;20028;-58
2023/06/16 08:42:12;;;;;;;12.07;4.47;;;23.30;56.40;;;;;;5066955;28;20431;-57
2023/06/16 08:44:39;;;;;;;10.80;4.47;;;23.30;58.70;;;;;;5060724;28;20157;-57
2023/06/16 08:47:05;;;;;;;11.43;4.43;;;23.60;60.00;;;;;;5059514;28;20492;-58
2023/06/16 08:49:31;;;;;;;8.40;4.57;;;23.60;56.90;;;;;;5059205;28;20047;-57
2023/06/16 08:51:59;;;;;;;9.95;4.32;;;23.50;56.30;;;;;;5063772;28;20055;-57
2023/06/16 08:54:26;;;;;;;10.10;4.50;;;23.30;57.60;;;;;;5069113;28;20036;-58
2023/06/16 08:56:52;;;;;;;8.02;4.18;;;23.50;56.40;;;;;;5062982;28;20041;-58
2023/06/16 08:59:20;;;;;;;6.80;3.83;;;23.80;59.10;;;;;;5064394;28;20093;-58
2023/06/16 09:01:46;;;;;;;13.13;4.03;;;23.80;55.80;;;;;;5061234;28;20536;-58
2023/06/16 09:04:13;;;;;;;8.77;4.20;;;23.90;56.80;;;;;;5056243;28;20475;-58
2023/06/16 09:06:47;;;;;;;7.72;3.88;;;23.90;55.80;;;;;;5057210;28;20036;-58
2023/06/16 09:09:13;;;;;;;6.95;3.47;;;24.00;55.90;;;;;;5061929;28;20489;-57
2023/06/16 09:11:39;;;;;;;10.27;3.80;;;24.00;53.80;;;;;;5064303;28;20036;-58
2023/06/16 09:14:14;;;;;;;8.30;3.40;;;24.20;56.10;;;;;;5069261;28;20438;-58
2023/06/16 09:16:41;;;;;;;9.38;3.90;;;23.90;54.80;;;;;;5062380;28;20055;-58
2023/06/16 09:19:08;;;;;;;8.65;3.13;;;24.00;55.00;;;;;;5065850;28;20041;-57
2023/06/16 09:21:34;;;;;;;6.05;3.50;;;24.30;56.50;;;;;;5069759;28;20403;-58
2023/06/16 09:24:00;;;;;;;5.25;2.72;;;24.50;54.40;;;;;;5066391;28;20536;-58
2023/06/16 09:26:30;;;;;;;4.25;3.08;;;24.80;55.10;;;;;;5064914;28;20033;-59
2023/06/16 09:28:56;;;;;;;5.57;3.10;;;24.80;53.60;;;;;;5063704;28;20050;-57
2023/06/16 09:31:27;;;;;;;4.57;3.05;;;24.40;51.60;;;;;;5065656;28;20048;-58
2023/06/16 09:34:02;;;;;;;6.97;3.05;;;24.40;52.70;;;;;;5067377;28;20041;-58
2023/06/16 09:36:28;;;;;;;4.05;3.10;;;24.30;50.70;;;;;;5069250;28;20569;-58
2023/06/16 09:38:53;;;;;;;4.97;2.90;;;24.20;51.30;;;;;;5070657;28;20067;-58
2023/06/16 09:41:20;;;;;;;5.72;3.10;;;24.00;50.60;;;;;;5064190;28;20077;-58
2023/06/16 09:43:45;;;;;;;6.03;2.92;;;24.10;51.10;;;;;;5070010;28;20150;-58
2023/06/16 09:46:12;;;;;;;3.17;2.88;;;24.10;50.50;;;;;;5064443;28;20040;-58
2023/06/16 09:48:50;;;;;;;5.03;2.85;;;23.90;49.30;;;;;;5069725;28;20036;-58
2023/06/16 09:51:21;;;;;;;5.32;3.20;;;23.90;51.00;;;;;;5063264;28;20032;-58
2023/06/16 09:53:48;;;;;;;7.18;3.38;;;24.00;50.70;;;;;;5067251;28;20399;-58
2023/06/16 09:56:17;;;;;;;6.10;2.92;;;24.10;51.00;;;;;;5062213;28;20713;-58
2023/06/16 09:58:44;;;;;;;7.05;3.55;;;24.20;51.40;;;;;;5066814;28;20036;-58
2023/06/16 10:01:13;;;;;;;4.85;3.25;;;24.20;49.20;;;;;;5066765;28;20522;-58
2023/06/16 10:03:41;;;;;;;5.40;3.10;;;24.20;51.90;;;;;;5067666;28;20053;-57
2023/06/16 10:06:21;;;;;;;5.00;3.75;;;24.40;49.80;;;;;;5059966;28;20550;-58
2023/06/16 10:08:48;;;;;;;8.68;6.38;;;24.40;49.70;;;;;;5055709;28;20518;-62
2023/06/16 10:11:18;;;;;;;5.28;3.35;;;24.10;48.80;;;;;;5065520;28;20384;-62
2023/06/16 10:13:53;;;;;;;5.55;3.13;;;24.20;49.70;;;;;;5063060;28;20127;-62
2023/06/16 10:16:25;;;;;;;4.93;3.60;;;24.20;53.20;;;;;;5070871;28;20412;-62
2023/06/16 10:18:53;;;;;;;6.65;3.42;;;24.10;51.40;;;;;;5079209;28;20036;-62
2023/06/16 10:21:19;;;;;;;4.60;3.20;;;24.10;52.40;;;;;;5062917;28;20488;-61
2023/06/16 10:23:45;;;;;;;7.03;3.15;;;24.20;51.20;;;;;;5069812;28;20120;-62
2023/06/16 10:26:12;;;;;;;5.90;3.92;;;24.20;53.30;;;;;;5064131;28;20166;-61
2023/06/16 10:28:38;;;;;;;8.02;3.63;;;24.20;51.30;;;;;;5068152;28;20035;-61
2023/06/16 10:31:05;;;;;;;8.43;3.65;;;24.30;54.10;;;;;;5062544;28;20490;-61
2023/06/16 10:33:54;;;;;;;5.70;3.22;;;24.10;52.20;;;;;;5064283;28;20036;-61
2023/06/16 10:36:38;;;;;;;5.18;2.92;;;24.40;54.80;;;;;;5063496;28;20035;-62
2023/06/16 10:39:09;;;;;;;10.00;3.45;;;24.50;54.30;;;;;;5063919;28;20048;-61
2023/06/16 10:41:54;;;;;;;6.07;3.70;;;24.50;50.80;;;;;;5064661;28;20044;-62
2023/06/16 10:44:32;;;;;;;5.47;3.60;;;24.50;50.20;;;;;;5068753;28;20124;-61
2023/06/16 10:47:12;;;;;;;5.40;3.22;;;24.70;49.70;;;;;;5062700;28;20094;-61
2023/06/16 10:49:55;;;;;;;5.80;3.42;;;24.60;51.40;;;;;;5063737;28;20028;-61
2023/06/16 10:52:30;;;;;;;4.78;3.38;;;24.80;50.60;;;;;;5065631;28;20040;-62
2023/06/16 10:54:57;;;;;;;6.78;3.22;;;24.60;47.80;;;;;;5064091;28;20051;-62
2023/06/16 10:57:26;;;;;;;4.00;3.30;;;24.70;50.60;;;;;;5058937;28;20546;-62
2023/06/16 11:00:11;;;;;;;3.80;3.38;;;24.80;49.80;;;;;;5073952;28;20491;-62
2023/06/16 11:02:47;;;;;;;6.43;3.50;;;25.10;48.10;;;;;;5069513;28;20365;-62
2023/06/16 11:05:14;;;;;;;5.57;3.30;;;25.00;47.90;;;;;;5062001;28;20135;-62
2023/06/16 11:08:02;;;;;;;6.35;3.60;;;25.00;49.00;;;;;;5064502;28;20047;-58
2023/06/16 11:10:28;;;;;;;8.18;3.88;;;25.10;46.80;;;;;;5068969;28;20037;-58
2023/06/16 11:12:54;;;;;;;5.50;3.58;;;25.00;45.80;;;;;;5068449;28;20036;-58
2023/06/16 11:15:20;;;;;;;4.03;3.13;;;25.00;45.30;;;;;;5065184;28;20510;-58
2023/06/16 11:17:49;;;;;;;5.72;3.45;;;25.00;45.00;;;;;;5062750;28;20025;-58
2023/06/16 11:20:16;;;;;;;5.38;3.55;;;25.20;47.10;;;;;;5064820;28;20084;-58
2023/06/16 11:22:45;;;;;;;7.13;3.38;;;25.00;45.50;;;;;;5061521;28;20167;-58
2023/06/16 11:25:11;;;;;;;6.90;3.67;;;25.30;45.40;;;;;;5063802;28;20047;-58
2023/06/16 11:27:38;;;;;;;7.65;3.65;;;25.10;42.30;;;;;;5062605;28;20068;-57
2023/06/16 11:30:08;;;;;;;3.92;3.38;;;25.20;44.10;;;;;;5068307;28;20068;-58
2023/06/16 11:32:37;;;;;;;5.20;3.28;;;25.10;41.80;;;;;;5063036;28;20044;-58
2023/06/16 11:35:03;;;;;;;4.90;3.45;;;25.30;43.10;;;;;;5065709;28;20495;-59
2023/06/16 11:37:40;;;;;;;3.95;3.20;;;25.30;44.90;;;;;;5075570;28;20055;-58
2023/06/16 11:40:07;;;;;;;4.93;3.40;;;25.30;45.10;;;;;;5059347;28;20048;-58
2023/06/16 11:42:33;;;;;;;9.50;8.48;;;25.30;45.00;;;;;;5063135;28;20056;-59
2023/06/16 11:44:59;;;;;;;5.90;3.70;;;25.00;42.50;;;;;;5060027;28;20047;-59
2023/06/16 11:47:25;;;;;;;4.53;3.55;;;24.90;42.30;;;;;;5058046;28;20036;-58
2023/06/16 11:49:51;;;;;;;4.97;3.60;;;24.90;44.00;;;;;;5069217;28;20119;-58
2023/06/16 11:52:17;;;;;;;5.28;3.47;;;24.90;41.90;;;;;;5075189;28;20033;-58
2023/06/16 11:54:43;;;;;;;5.40;3.42;;;24.90;44.60;;;;;;5071491;28;20499;-58
2023/06/16 11:57:09;;;;;;;4.97;3.50;;;25.10;41.70;;;;;;5058610;28;20127;-58
2023/06/16 11:59:35;;;;;;;5.63;3.50;;;25.10;42.10;;;;;;5072387;28;20067;-58
2023/06/16 12:02:03;;;;;;;6.30;3.88;;;25.20;44.00;;;;;;5066862;28;20500;-58
2023/06/16 12:04:31;;;;;;;4.30;3.38;;;25.20;41.00;;;;;;5059587;28;20036;-58
2023/06/16 12:06:57;;;;;;;4.60;3.40;;;25.20;41.80;;;;;;5062532;28;20036;-59
2023/06/16 12:09:35;;;;;;;7.18;3.63;;;25.30;42.90;;;;;;5062578;28;20128;-58
2023/06/16 12:12:02;;;;;;;7.53;3.20;;;25.40;43.60;;;;;;5065597;28;20032;-58
2023/06/16 12:14:28;;;;;;;4.55;3.75;;;25.70;42.80;;;;;;5063176;28;20064;-58
2023/06/16 12:16:56;;;;;;;7.07;3.58;;;25.60;43.30;;;;;;5062887;28;20062;-58
2023/06/16 12:19:22;;;;;;;6.47;3.80;;;25.60;40.90;;;;;;5062851;28;20040;-58
2023/06/16 12:21:56;;;;;;;8.00;3.47;;;25.40;41.60;;;;;;5070521;28;20082;-58
2023/06/16 12:24:22;;;;;;;6.20;3.58;;;25.30;42.50;;;;;;5062859;28;20040;-58
2023/06/16 12:26:51;;;;;;;5.05;3.40;;;25.40;43.00;;;;;;5061695;28;20048;-58
2023/06/16 12:29:17;;;;;;;6.28;3.78;;;25.50;42.80;;;;;;5064562;28;20102;-58
2023/06/16 12:32:00;;;;;;;6.13;3.95;;;25.30;43.70;;;;;;5058422;28;20040;-58
2023/06/16 12:34:35;;;;;;;7.33;3.33;;;25.40;45.00;;;;;;5057862;28;20043;-58
2023/06/16 12:37:10;;;;;;;5.00;3.47;;;25.70;44.80;;;;;;5062702;28;20423;-57
2023/06/16 12:39:37;;;;;;;6.75;4.07;;;25.70;44.60;;;;;;5066247;28;20040;-58
2023/06/16 12:42:12;;;;;;;7.25;3.83;;;25.60;45.20;;;;;;5064045;28;20249;-58
2023/06/16 12:44:46;;;;;;;6.43;3.88;;;25.50;42.70;;;;;;5061125;28;20155;-57
2023/06/16 12:47:13;;;;;;;7.13;3.35;;;25.50;43.90;;;;;;5060453;28;20146;-58